Layland, Ohio
Current Conditions -  °F | °C
As of 7:36 PM on Monday 24 Nov 2014 (Local Time) from K4I3 Reporting Station
Overcast Overcast  
Wind Chill: 34°   Ceiling: 3600
Heat Index: 43°   Visibility: 10mi
Dew Point: 32°   Wind: 22mph
Humidity: 66%   Direction: 230°SW
Pressure: 29.75"   Gusts: 32mph
Location:  40.4765°N, 82.0295°W
Report Text: K4I3 250036Z AUTO 23019G28KT 10SM OVC036 06/00 A2975 RMK AO2
Loading
Personal Weather Stations






























Interactive Weather Map New forecast layout! Learn more

10-Day Weather Forecast

Advertisements
Track Severe Weather on mobile